Mulbarton, United Kingdom
Current Conditions -  °F | °C
As of 10:50 PM on Tuesday 27 Jan 2015 (Local Time) from EGSH Reporting Station
Overcast Overcast  
Wind Chill: 37°   Ceiling: 2500
Heat Index: 43°   Visibility: 6mi
Dew Point: 37°   Wind: 10mph
Humidity: 81%   Direction: 220°SW
Pressure: 30.06"   Gusts: NA
Location:  52.56°N, 1.23°E
Report Text: EGSH 272250Z AUTO 22009KT 9999 BKN025/// OVC031/// 06/03 Q1018
Loading
Personal Weather Stations






























Interactive Weather Map New forecast layout! Learn more

10-Day Weather Forecast

Advertisements
Track Severe Weather on mobile